sensor_id;sensor_type;location;lat;lon;timestamp;P1;durP1;ratioP1;P2;durP2;ratioP2
71869;SDS011;59739;47.696;11.746;2023-05-14T00:00:01;1.65;;;1.38;;
71869;SDS011;59739;47.696;11.746;2023-05-14T00:02:28;1.50;;;1.30;;
71869;SDS011;59739;47.696;11.746;2023-05-14T00:04:54;2.00;;;1.50;;
71869;SDS011;59739;47.696;11.746;2023-05-14T00:07:20;3.78;;;1.63;;
71869;SDS011;59739;47.696;11.746;2023-05-14T00:09:45;1.65;;;1.45;;
71869;SDS011;59739;47.696;11.746;2023-05-14T00:12:11;1.50;;;1.40;;
71869;SDS011;59739;47.696;11.746;2023-05-14T00:14:37;2.00;;;1.50;;
71869;SDS011;59739;47.696;11.746;2023-05-14T00:17:03;1.95;;;1.63;;
71869;SDS011;59739;47.696;11.746;2023-05-14T00:19:30;1.63;;;1.48;;
71869;SDS011;59739;47.696;11.746;2023-05-14T00:21:56;1.95;;;1.50;;
71869;SDS011;59739;47.696;11.746;2023-05-14T00:24:22;1.98;;;1.50;;
71869;SDS011;59739;47.696;11.746;2023-05-14T00:26:48;2.33;;;1.90;;
71869;SDS011;59739;47.696;11.746;2023-05-14T00:29:14;2.38;;;1.70;;
71869;SDS011;59739;47.696;11.746;2023-05-14T00:31:40;2.47;;;1.92;;
71869;SDS011;59739;47.696;11.746;2023-05-14T00:34:06;2.70;;;2.10;;
71869;SDS011;59739;47.696;11.746;2023-05-14T00:36:32;3.58;;;1.95;;
71869;SDS011;59739;47.696;11.746;2023-05-14T00:38:58;3.50;;;2.17;;
71869;SDS011;59739;47.696;11.746;2023-05-14T00:41:24;2.17;;;1.80;;
71869;SDS011;59739;47.696;11.746;2023-05-14T00:43:50;5.82;;;1.55;;
71869;SDS011;59739;47.696;11.746;2023-05-14T00:46:16;3.33;;;1.38;;
71869;SDS011;59739;47.696;11.746;2023-05-14T00:48:43;1.30;;;1.20;;
71869;SDS011;59739;47.696;11.746;2023-05-14T00:51:09;1.30;;;1.20;;
71869;SDS011;59739;47.696;11.746;2023-05-14T00:53:36;1.33;;;0.90;;
71869;SDS011;59739;47.696;11.746;2023-05-14T00:56:02;1.15;;;1.05;;
71869;SDS011;59739;47.696;11.746;2023-05-14T00:58:28;1.30;;;0.93;;
71869;SDS011;59739;47.696;11.746;2023-05-14T01:00:54;1.23;;;1.13;;
71869;SDS011;59739;47.696;11.746;2023-05-14T01:03:20;1.13;;;0.95;;
71869;SDS011;59739;47.696;11.746;2023-05-14T01:05:55;0.80;;;0.80;;
71869;SDS011;59739;47.696;11.746;2023-05-14T01:14:22;2.45;;;0.88;;
71869;SDS011;59739;47.696;11.746;2023-05-14T01:19:43;0.82;;;0.80;;
71869;SDS011;59739;47.696;11.746;2023-05-14T01:22:10;2.13;;;0.90;;
71869;SDS011;59739;47.696;11.746;2023-05-14T01:24:37;1.15;;;0.85;;
71869;SDS011;59739;47.696;11.746;2023-05-14T01:27:40;1.63;;;1.00;;
71869;SDS011;59739;47.696;11.746;2023-05-14T01:32:58;1.20;;;1.00;;
71869;SDS011;59739;47.696;11.746;2023-05-14T01:35:28;0.80;;;0.80;;
71869;SDS011;59739;47.696;11.746;2023-05-14T01:37:55;2.28;;;1.00;;
71869;SDS011;59739;47.696;11.746;2023-05-14T01:40:27;1.33;;;1.00;;
71869;SDS011;59739;47.696;11.746;2023-05-14T01:42:53;1.20;;;1.02;;
71869;SDS011;59739;47.696;11.746;2023-05-14T01:45:21;1.48;;;1.20;;
71869;SDS011;59739;47.696;11.746;2023-05-14T01:47:48;1.38;;;1.13;;
71869;SDS011;59739;47.696;11.746;2023-05-14T01:50:15;1.35;;;1.20;;
71869;SDS011;59739;47.696;11.746;2023-05-14T01:52:41;2.92;;;1.10;;
71869;SDS011;59739;47.696;11.746;2023-05-14T01:55:08;0.95;;;0.85;;
71869;SDS011;59739;47.696;11.746;2023-05-14T01:57:35;1.15;;;0.80;;
71869;SDS011;59739;47.696;11.746;2023-05-14T02:00:01;0.80;;;0.80;;
71869;SDS011;59739;47.696;11.746;2023-05-14T02:02:39;1.33;;;0.90;;
71869;SDS011;59739;47.696;11.746;2023-05-14T02:05:07;1.15;;;1.02;;
71869;SDS011;59739;47.696;11.746;2023-05-14T02:07:34;0.90;;;0.80;;
71869;SDS011;59739;47.696;11.746;2023-05-14T02:10:00;1.00;;;0.90;;
71869;SDS011;59739;47.696;11.746;2023-05-14T02:12:26;0.93;;;0.82;;
71869;SDS011;59739;47.696;11.746;2023-05-14T02:14:53;1.08;;;0.85;;
71869;SDS011;59739;47.696;11.746;2023-05-14T02:17:19;1.30;;;1.00;;
71869;SDS011;59739;47.696;11.746;2023-05-14T02:19:45;1.05;;;0.80;;
71869;SDS011;59739;47.696;11.746;2023-05-14T02:22:12;0.95;;;0.82;;
71869;SDS011;59739;47.696;11.746;2023-05-14T02:24:38;0.60;;;0.55;;
71869;SDS011;59739;47.696;11.746;2023-05-14T02:27:05;1.35;;;0.88;;
71869;SDS011;59739;47.696;11.746;2023-05-14T02:29:31;0.65;;;0.65;;
71869;SDS011;59739;47.696;11.746;2023-05-14T02:31:57;1.30;;;0.70;;
71869;SDS011;59739;47.696;11.746;2023-05-14T02:34:23;0.90;;;0.70;;
71869;SDS011;59739;47.696;11.746;2023-05-14T02:36:49;0.77;;;0.77;;
71869;SDS011;59739;47.696;11.746;2023-05-14T02:39:15;1.42;;;0.90;;
71869;SDS011;59739;47.696;11.746;2023-05-14T02:41:44;1.25;;;0.90;;
71869;SDS011;59739;47.696;11.746;2023-05-14T02:44:10;0.98;;;0.90;;
71869;SDS011;59739;47.696;11.746;2023-05-14T02:46:35;0.90;;;0.80;;
71869;SDS011;59739;47.696;11.746;2023-05-14T02:49:02;0.88;;;0.70;;
71869;SDS011;59739;47.696;11.746;2023-05-14T02:51:28;0.93;;;0.90;;
71869;SDS011;59739;47.696;11.746;2023-05-14T02:53:56;3.72;;;1.00;;
71869;SDS011;59739;47.696;11.746;2023-05-14T02:56:22;1.00;;;0.73;;
71869;SDS011;59739;47.696;11.746;2023-05-14T02:58:48;1.10;;;0.88;;
71869;SDS011;59739;47.696;11.746;2023-05-14T03:01:14;0.82;;;0.80;;
71869;SDS011;59739;47.696;11.746;2023-05-14T03:03:42;1.00;;;0.88;;
71869;SDS011;59739;47.696;11.746;2023-05-14T03:06:11;0.88;;;0.77;;
71869;SDS011;59739;47.696;11.746;2023-05-14T03:08:37;0.70;;;0.70;;
71869;SDS011;59739;47.696;11.746;2023-05-14T03:11:03;0.70;;;0.70;;
71869;SDS011;59739;47.696;11.746;2023-05-14T03:13:30;0.85;;;0.80;;
71869;SDS011;59739;47.696;11.746;2023-05-14T03:15:56;1.17;;;0.63;;
71869;SDS011;59739;47.696;11.746;2023-05-14T03:18:22;0.93;;;0.82;;
71869;SDS011;59739;47.696;11.746;2023-05-14T03:20:49;0.95;;;0.70;;
71869;SDS011;59739;47.696;11.746;2023-05-14T03:23:15;0.65;;;0.63;;
71869;SDS011;59739;47.696;11.746;2023-05-14T03:25:41;0.68;;;0.52;;
71869;SDS011;59739;47.696;11.746;2023-05-14T03:28:07;0.60;;;0.60;;
71869;SDS011;59739;47.696;11.746;2023-05-14T03:30:33;1.45;;;0.85;;
71869;SDS011;59739;47.696;11.746;2023-05-14T03:33:00;1.10;;;0.70;;
71869;SDS011;59739;47.696;11.746;2023-05-14T03:35:26;0.90;;;0.80;;
71869;SDS011;59739;47.696;11.746;2023-05-14T03:37:52;0.73;;;0.52;;
71869;SDS011;59739;47.696;11.746;2023-05-14T03:40:18;1.38;;;0.70;;
71869;SDS011;59739;47.696;11.746;2023-05-14T03:42:45;1.27;;;0.68;;
71869;SDS011;59739;47.696;11.746;2023-05-14T03:45:13;0.60;;;0.60;;
71869;SDS011;59739;47.696;11.746;2023-05-14T03:47:39;0.80;;;0.80;;
71869;SDS011;59739;47.696;11.746;2023-05-14T03:50:05;1.17;;;0.70;;
71869;SDS011;59739;47.696;11.746;2023-05-14T03:52:33;1.45;;;0.60;;
71869;SDS011;59739;47.696;11.746;2023-05-14T03:55:01;0.80;;;0.65;;
71869;SDS011;59739;47.696;11.746;2023-05-14T03:57:27;1.48;;;0.95;;
71869;SDS011;59739;47.696;11.746;2023-05-14T03:59:55;1.20;;;1.08;;
71869;SDS011;59739;47.696;11.746;2023-05-14T04:02:20;1.08;;;0.82;;
71869;SDS011;59739;47.696;11.746;2023-05-14T04:04:46;1.15;;;0.90;;
71869;SDS011;59739;47.696;11.746;2023-05-14T04:07:17;1.75;;;1.20;;
71869;SDS011;59739;47.696;11.746;2023-05-14T04:09:43;0.80;;;0.80;;
71869;SDS011;59739;47.696;11.746;2023-05-14T04:12:10;1.25;;;0.70;;
71869;SDS011;59739;47.696;11.746;2023-05-14T04:14:36;0.93;;;0.70;;
71869;SDS011;59739;47.696;11.746;2023-05-14T04:17:02;1.70;;;0.68;;
71869;SDS011;59739;47.696;11.746;2023-05-14T04:19:28;0.93;;;0.82;;
71869;SDS011;59739;47.696;11.746;2023-05-14T04:21:55;0.95;;;0.70;;
71869;SDS011;59739;47.696;11.746;2023-05-14T04:24:21;1.55;;;1.00;;
71869;SDS011;59739;47.696;11.746;2023-05-14T04:26:47;3.70;;;0.70;;
71869;SDS011;59739;47.696;11.746;2023-05-14T04:29:13;1.40;;;0.57;;
71869;SDS011;59739;47.696;11.746;2023-05-14T04:31:39;2.17;;;0.80;;
71869;SDS011;59739;47.696;11.746;2023-05-14T04:34:06;0.60;;;0.60;;
71869;SDS011;59739;47.696;11.746;2023-05-14T04:36:31;1.05;;;0.90;;
71869;SDS011;59739;47.696;11.746;2023-05-14T04:38:57;0.80;;;0.77;;
71869;SDS011;59739;47.696;11.746;2023-05-14T04:41:23;0.55;;;0.55;;
71869;SDS011;59739;47.696;11.746;2023-05-14T04:43:50;1.00;;;0.70;;
71869;SDS011;59739;47.696;11.746;2023-05-14T04:46:19;0.57;;;0.57;;
71869;SDS011;59739;47.696;11.746;2023-05-14T04:48:45;1.05;;;0.95;;
71869;SDS011;59739;47.696;11.746;2023-05-14T04:51:12;1.50;;;0.70;;
71869;SDS011;59739;47.696;11.746;2023-05-14T04:53:39;1.80;;;0.70;;
71869;SDS011;59739;47.696;11.746;2023-05-14T04:56:05;1.23;;;0.82;;
71869;SDS011;59739;47.696;11.746;2023-05-14T04:58:31;0.90;;;0.70;;
71869;SDS011;59739;47.696;11.746;2023-05-14T05:00:58;1.45;;;0.68;;
71869;SDS011;59739;47.696;11.746;2023-05-14T05:03:24;1.17;;;0.73;;
71869;SDS011;59739;47.696;11.746;2023-05-14T05:05:50;0.82;;;0.70;;
71869;SDS011;59739;47.696;11.746;2023-05-14T05:08:16;3.35;;;1.05;;
71869;SDS011;59739;47.696;11.746;2023-05-14T05:10:42;0.80;;;0.80;;
71869;SDS011;59739;47.696;11.746;2023-05-14T05:13:08;1.13;;;0.90;;
71869;SDS011;59739;47.696;11.746;2023-05-14T05:15:34;1.00;;;0.70;;
71869;SDS011;59739;47.696;11.746;2023-05-14T05:18:00;2.22;;;0.90;;
71869;SDS011;59739;47.696;11.746;2023-05-14T05:20:26;0.75;;;0.75;;
71869;SDS011;59739;47.696;11.746;2023-05-14T05:22:52;1.92;;;0.65;;
71869;SDS011;59739;47.696;11.746;2023-05-14T05:25:18;2.38;;;0.95;;
71869;SDS011;59739;47.696;11.746;2023-05-14T05:27:44;1.00;;;0.90;;
71869;SDS011;59739;47.696;11.746;2023-05-14T05:30:11;1.05;;;0.90;;
71869;SDS011;59739;47.696;11.746;2023-05-14T05:32:37;0.77;;;0.77;;
71869;SDS011;59739;47.696;11.746;2023-05-14T05:35:03;1.33;;;1.00;;
71869;SDS011;59739;47.696;11.746;2023-05-14T05:37:30;1.73;;;0.90;;
71869;SDS011;59739;47.696;11.746;2023-05-14T05:39:56;1.15;;;1.05;;
71869;SDS011;59739;47.696;11.746;2023-05-14T05:42:23;1.45;;;0.60;;
71869;SDS011;59739;47.696;11.746;2023-05-14T05:44:49;2.20;;;0.80;;
71869;SDS011;59739;47.696;11.746;2023-05-14T05:47:15;1.15;;;0.90;;
71869;SDS011;59739;47.696;11.746;2023-05-14T05:49:41;1.88;;;0.98;;
71869;SDS011;59739;47.696;11.746;2023-05-14T05:52:07;1.08;;;0.90;;
71869;SDS011;59739;47.696;11.746;2023-05-14T05:54:33;1.58;;;0.90;;
71869;SDS011;59739;47.696;11.746;2023-05-14T05:56:59;2.00;;;0.88;;
71869;SDS011;59739;47.696;11.746;2023-05-14T05:59:25;1.20;;;1.10;;
71869;SDS011;59739;47.696;11.746;2023-05-14T06:01:52;0.88;;;0.75;;
71869;SDS011;59739;47.696;11.746;2023-05-14T06:04:18;0.98;;;0.88;;
71869;SDS011;59739;47.696;11.746;2023-05-14T06:06:44;1.15;;;0.77;;
71869;SDS011;59739;47.696;11.746;2023-05-14T06:09:10;1.00;;;0.80;;
71869;SDS011;59739;47.696;11.746;2023-05-14T06:11:36;0.85;;;0.80;;
71869;SDS011;59739;47.696;11.746;2023-05-14T06:14:02;0.93;;;0.82;;
71869;SDS011;59739;47.696;11.746;2023-05-14T06:16:28;0.88;;;0.88;;
71869;SDS011;59739;47.696;11.746;2023-05-14T06:18:54;2.25;;;0.95;;
71869;SDS011;59739;47.696;11.746;2023-05-14T06:21:20;1.65;;;1.00;;
71869;SDS011;59739;47.696;11.746;2023-05-14T06:23:46;1.65;;;0.90;;
71869;SDS011;59739;47.696;11.746;2023-05-14T06:26:12;1.63;;;0.93;;
71869;SDS011;59739;47.696;11.746;2023-05-14T06:28:41;1.13;;;1.02;;
71869;SDS011;59739;47.696;11.746;2023-05-14T06:31:07;1.35;;;1.25;;
71869;SDS011;59739;47.696;11.746;2023-05-14T06:33:33;3.13;;;0.85;;
71869;SDS011;59739;47.696;11.746;2023-05-14T06:36:04;1.30;;;1.17;;
71869;SDS011;59739;47.696;11.746;2023-05-14T06:38:32;3.20;;;1.30;;
71869;SDS011;59739;47.696;11.746;2023-05-14T06:40:58;1.42;;;1.33;;
71869;SDS011;59739;47.696;11.746;2023-05-14T06:43:24;1.10;;;1.00;;
71869;SDS011;59739;47.696;11.746;2023-05-14T06:45:50;1.42;;;1.30;;
71869;SDS011;59739;47.696;11.746;2023-05-14T06:48:17;1.00;;;0.90;;
71869;SDS011;59739;47.696;11.746;2023-05-14T06:50:44;1.33;;;1.13;;
71869;SDS011;59739;47.696;11.746;2023-05-14T06:53:11;1.17;;;1.02;;
71869;SDS011;59739;47.696;11.746;2023-05-14T06:55:37;1.33;;;1.23;;
71869;SDS011;59739;47.696;11.746;2023-05-14T06:58:07;1.95;;;1.20;;
71869;SDS011;59739;47.696;11.746;2023-05-14T07:00:33;0.93;;;0.70;;
71869;SDS011;59739;47.696;11.746;2023-05-14T07:02:59;0.93;;;0.90;;
71869;SDS011;59739;47.696;11.746;2023-05-14T07:05:25;1.38;;;0.85;;
71869;SDS011;59739;47.696;11.746;2023-05-14T07:07:51;1.00;;;0.90;;
71869;SDS011;59739;47.696;11.746;2023-05-14T07:10:17;2.63;;;0.90;;
71869;SDS011;59739;47.696;11.746;2023-05-14T07:12:43;1.08;;;0.90;;
71869;SDS011;59739;47.696;11.746;2023-05-14T07:15:09;1.40;;;0.98;;
71869;SDS011;59739;47.696;11.746;2023-05-14T07:17:36;1.10;;;0.93;;
71869;SDS011;59739;47.696;11.746;2023-05-14T07:20:02;2.85;;;1.67;;
71869;SDS011;59739;47.696;11.746;2023-05-14T07:22:29;12.98;;;6.60;;
71869;SDS011;59739;47.696;11.746;2023-05-14T07:24:55;4.40;;;1.92;;
71869;SDS011;59739;47.696;11.746;2023-05-14T07:27:21;5.22;;;3.38;;
71869;SDS011;59739;47.696;11.746;2023-05-14T07:29:48;14.38;;;9.15;;
71869;SDS011;59739;47.696;11.746;2023-05-14T07:32:14;1.85;;;1.48;;
71869;SDS011;59739;47.696;11.746;2023-05-14T07:34:41;2.08;;;1.30;;
71869;SDS011;59739;47.696;11.746;2023-05-14T07:37:07;2.60;;;1.17;;
71869;SDS011;59739;47.696;11.746;2023-05-14T07:39:33;1.38;;;1.00;;
71869;SDS011;59739;47.696;11.746;2023-05-14T07:42:00;2.10;;;0.98;;
71869;SDS011;59739;47.696;11.746;2023-05-14T07:44:26;1.38;;;1.27;;
71869;SDS011;59739;47.696;11.746;2023-05-14T07:46:52;1.42;;;1.33;;
71869;SDS011;59739;47.696;11.746;2023-05-14T07:49:18;1.90;;;1.70;;
71869;SDS011;59739;47.696;11.746;2023-05-14T07:51:44;1.92;;;1.65;;
71869;SDS011;59739;47.696;11.746;2023-05-14T07:54:10;2.78;;;1.83;;
71869;SDS011;59739;47.696;11.746;2023-05-14T07:56:37;3.25;;;2.10;;
71869;SDS011;59739;47.696;11.746;2023-05-14T07:59:03;2.53;;;2.33;;
71869;SDS011;59739;47.696;11.746;2023-05-14T08:01:29;3.53;;;2.88;;
71869;SDS011;59739;47.696;11.746;2023-05-14T08:03:55;3.22;;;2.72;;
71869;SDS011;59739;47.696;11.746;2023-05-14T08:06:21;4.10;;;3.47;;
71869;SDS011;59739;47.696;11.746;2023-05-14T08:08:51;6.68;;;3.50;;
71869;SDS011;59739;47.696;11.746;2023-05-14T08:11:17;6.03;;;3.72;;
71869;SDS011;59739;47.696;11.746;2023-05-14T08:13:43;4.50;;;3.70;;
71869;SDS011;59739;47.696;11.746;2023-05-14T08:16:09;4.25;;;3.85;;
71869;SDS011;59739;47.696;11.746;2023-05-14T08:18:35;4.30;;;3.38;;
71869;SDS011;59739;47.696;11.746;2023-05-14T08:21:01;3.75;;;3.13;;
71869;SDS011;59739;47.696;11.746;2023-05-14T08:23:27;4.57;;;3.00;;
71869;SDS011;59739;47.696;11.746;2023-05-14T08:25:53;3.53;;;2.83;;
71869;SDS011;59739;47.696;11.746;2023-05-14T08:28:20;3.53;;;2.95;;
71869;SDS011;59739;47.696;11.746;2023-05-14T08:30:46;3.97;;;3.30;;
71869;SDS011;59739;47.696;11.746;2023-05-14T08:33:12;4.03;;;3.38;;
71869;SDS011;59739;47.696;11.746;2023-05-14T08:35:38;4.70;;;3.45;;
71869;SDS011;59739;47.696;11.746;2023-05-14T08:38:04;5.45;;;3.95;;
71869;SDS011;59739;47.696;11.746;2023-05-14T08:40:30;5.65;;;3.53;;
71869;SDS011;59739;47.696;11.746;2023-05-14T08:42:56;4.32;;;3.75;;
71869;SDS011;59739;47.696;11.746;2023-05-14T08:45:27;4.82;;;4.35;;
71869;SDS011;59739;47.696;11.746;2023-05-14T08:47:58;6.82;;;4.40;;
71869;SDS011;59739;47.696;11.746;2023-05-14T08:50:26;6.32;;;4.07;;
71869;SDS011;59739;47.696;11.746;2023-05-14T08:52:54;6.32;;;4.75;;
71869;SDS011;59739;47.696;11.746;2023-05-14T08:55:20;10.07;;;4.80;;
71869;SDS011;59739;47.696;11.746;2023-05-14T08:57:48;6.65;;;5.65;;
71869;SDS011;59739;47.696;11.746;2023-05-14T09:00:14;6.40;;;4.63;;
71869;SDS011;59739;47.696;11.746;2023-05-14T09:02:40;6.30;;;4.70;;
71869;SDS011;59739;47.696;11.746;2023-05-14T09:05:08;7.65;;;5.32;;
71869;SDS011;59739;47.696;11.746;2023-05-14T09:07:34;6.82;;;5.20;;
71869;SDS011;59739;47.696;11.746;2023-05-14T09:10:01;6.63;;;5.13;;
71869;SDS011;59739;47.696;11.746;2023-05-14T09:12:28;5.60;;;4.63;;
71869;SDS011;59739;47.696;11.746;2023-05-14T09:14:54;5.53;;;4.65;;
71869;SDS011;59739;47.696;11.746;2023-05-14T09:17:20;6.13;;;3.70;;
71869;SDS011;59739;47.696;11.746;2023-05-14T09:19:49;5.47;;;3.65;;
71869;SDS011;59739;47.696;11.746;2023-05-14T09:22:17;2.97;;;2.58;;
71869;SDS011;59739;47.696;11.746;2023-05-14T09:24:44;3.90;;;3.10;;
71869;SDS011;59739;47.696;11.746;2023-05-14T09:27:14;3.05;;;2.67;;
71869;SDS011;59739;47.696;11.746;2023-05-14T09:29:46;3.90;;;2.65;;
71869;SDS011;59739;47.696;11.746;2023-05-14T09:32:12;5.35;;;3.30;;
71869;SDS011;59739;47.696;11.746;2023-05-14T09:34:39;4.07;;;3.30;;
71869;SDS011;59739;47.696;11.746;2023-05-14T09:37:08;3.40;;;3.10;;
71869;SDS011;59739;47.696;11.746;2023-05-14T09:39:35;4.63;;;2.80;;
71869;SDS011;59739;47.696;11.746;2023-05-14T09:42:02;3.88;;;2.92;;
71869;SDS011;59739;47.696;11.746;2023-05-14T09:44:29;3.83;;;3.08;;
71869;SDS011;59739;47.696;11.746;2023-05-14T09:46:55;4.38;;;2.90;;
71869;SDS011;59739;47.696;11.746;2023-05-14T09:49:22;4.15;;;2.67;;
71869;SDS011;59739;47.696;11.746;2023-05-14T09:51:48;2.47;;;2.13;;
71869;SDS011;59739;47.696;11.746;2023-05-14T09:54:15;3.38;;;2.67;;
71869;SDS011;59739;47.696;11.746;2023-05-14T09:56:41;3.15;;;1.92;;
71869;SDS011;59739;47.696;11.746;2023-05-14T09:59:08;3.30;;;2.72;;
71869;SDS011;59739;47.696;11.746;2023-05-14T10:01:34;4.57;;;4.03;;
71869;SDS011;59739;47.696;11.746;2023-05-14T10:04:02;7.22;;;5.20;;
71869;SDS011;59739;47.696;11.746;2023-05-14T10:06:32;5.15;;;4.18;;
71869;SDS011;59739;47.696;11.746;2023-05-14T10:09:02;5.93;;;4.97;;
71869;SDS011;59739;47.696;11.746;2023-05-14T10:11:35;5.07;;;4.00;;
71869;SDS011;59739;47.696;11.746;2023-05-14T10:14:28;4.88;;;4.10;;
71869;SDS011;59739;47.696;11.746;2023-05-14T10:17:02;4.00;;;3.08;;
71869;SDS011;59739;47.696;11.746;2023-05-14T10:19:32;6.22;;;4.63;;
71869;SDS011;59739;47.696;11.746;2023-05-14T10:22:03;5.38;;;4.25;;
71869;SDS011;59739;47.696;11.746;2023-05-14T10:24:31;4.80;;;4.15;;
71869;SDS011;59739;47.696;11.746;2023-05-14T10:26:58;6.35;;;4.40;;
71869;SDS011;59739;47.696;11.746;2023-05-14T10:29:34;5.68;;;4.25;;
71869;SDS011;59739;47.696;11.746;2023-05-14T10:32:03;5.20;;;3.92;;
71869;SDS011;59739;47.696;11.746;2023-05-14T10:34:41;4.32;;;3.80;;
71869;SDS011;59739;47.696;11.746;2023-05-14T10:37:11;6.00;;;4.43;;
71869;SDS011;59739;47.696;11.746;2023-05-14T10:39:41;6.22;;;4.57;;
71869;SDS011;59739;47.696;11.746;2023-05-14T10:42:11;10.68;;;5.75;;
71869;SDS011;59739;47.696;11.746;2023-05-14T10:47:36;5.03;;;4.13;;
71869;SDS011;59739;47.696;11.746;2023-05-14T10:50:05;4.75;;;3.78;;
71869;SDS011;59739;47.696;11.746;2023-05-14T10:52:33;4.63;;;3.42;;
71869;SDS011;59739;47.696;11.746;2023-05-14T10:55:01;4.68;;;3.60;;
71869;SDS011;59739;47.696;11.746;2023-05-14T10:57:34;4.60;;;3.35;;
71869;SDS011;59739;47.696;11.746;2023-05-14T11:00:18;5.70;;;3.47;;
71869;SDS011;59739;47.696;11.746;2023-05-14T11:02:49;3.92;;;3.03;;
71869;SDS011;59739;47.696;11.746;2023-05-14T11:05:20;5.20;;;3.47;;
71869;SDS011;59739;47.696;11.746;2023-05-14T11:07:47;5.88;;;3.97;;
71869;SDS011;59739;47.696;11.746;2023-05-14T11:10:15;6.05;;;3.67;;
71869;SDS011;59739;47.696;11.746;2023-05-14T11:12:44;7.13;;;4.40;;
71869;SDS011;59739;47.696;11.746;2023-05-14T11:15:15;6.57;;;4.20;;
71869;SDS011;59739;47.696;11.746;2023-05-14T11:17:45;4.38;;;3.53;;
71869;SDS011;59739;47.696;11.746;2023-05-14T11:20:13;5.40;;;4.00;;
71869;SDS011;59739;47.696;11.746;2023-05-14T11:22:39;5.65;;;4.43;;
71869;SDS011;59739;47.696;11.746;2023-05-14T11:25:07;8.73;;;4.82;;
71869;SDS011;59739;47.696;11.746;2023-05-14T11:27:38;9.20;;;5.05;;
71869;SDS011;59739;47.696;11.746;2023-05-14T11:32:43;5.32;;;4.30;;
71869;SDS011;59739;47.696;11.746;2023-05-14T11:35:13;5.32;;;3.88;;
71869;SDS011;59739;47.696;11.746;2023-05-14T11:37:40;4.78;;;4.05;;
71869;SDS011;59739;47.696;11.746;2023-05-14T11:40:07;5.72;;;4.20;;
71869;SDS011;59739;47.696;11.746;2023-05-14T11:42:40;6.18;;;4.82;;
71869;SDS011;59739;47.696;11.746;2023-05-14T11:45:09;7.60;;;5.32;;
71869;SDS011;59739;47.696;11.746;2023-05-14T11:47:37;7.78;;;4.57;;
71869;SDS011;59739;47.696;11.746;2023-05-14T11:50:03;6.25;;;4.57;;
71869;SDS011;59739;47.696;11.746;2023-05-14T11:52:30;6.22;;;4.55;;
71869;SDS011;59739;47.696;11.746;2023-05-14T11:55:03;9.30;;;6.22;;
71869;SDS011;59739;47.696;11.746;2023-05-14T11:57:30;6.78;;;5.55;;
71869;SDS011;59739;47.696;11.746;2023-05-14T11:59:56;5.70;;;4.20;;
71869;SDS011;59739;47.696;11.746;2023-05-14T12:02:22;5.70;;;4.30;;
71869;SDS011;59739;47.696;11.746;2023-05-14T12:04:54;6.22;;;4.90;;
71869;SDS011;59739;47.696;11.746;2023-05-14T12:07:21;5.63;;;4.18;;
71869;SDS011;59739;47.696;11.746;2023-05-14T12:09:47;7.30;;;4.85;;
71869;SDS011;59739;47.696;11.746;2023-05-14T12:12:16;7.68;;;5.85;;
71869;SDS011;59739;47.696;11.746;2023-05-14T12:14:45;7.50;;;5.40;;
71869;SDS011;59739;47.696;11.746;2023-05-14T12:17:12;8.10;;;6.18;;
71869;SDS011;59739;47.696;11.746;2023-05-14T12:19:46;6.85;;;5.38;;
71869;SDS011;59739;47.696;11.746;2023-05-14T12:22:14;6.57;;;4.80;;
71869;SDS011;59739;47.696;11.746;2023-05-14T12:24:51;7.05;;;4.85;;
71869;SDS011;59739;47.696;11.746;2023-05-14T12:27:20;6.95;;;4.80;;
71869;SDS011;59739;47.696;11.746;2023-05-14T12:29:57;6.65;;;4.80;;
71869;SDS011;59739;47.696;11.746;2023-05-14T12:32:34;6.05;;;4.97;;
71869;SDS011;59739;47.696;11.746;2023-05-14T12:35:03;6.57;;;4.70;;
71869;SDS011;59739;47.696;11.746;2023-05-14T12:37:30;6.50;;;4.75;;
71869;SDS011;59739;47.696;11.746;2023-05-14T12:39:56;6.57;;;4.68;;
71869;SDS011;59739;47.696;11.746;2023-05-14T12:42:22;6.03;;;4.20;;
71869;SDS011;59739;47.696;11.746;2023-05-14T12:44:48;6.72;;;4.63;;
71869;SDS011;59739;47.696;11.746;2023-05-14T12:47:13;5.93;;;4.25;;
71869;SDS011;59739;47.696;11.746;2023-05-14T12:49:40;7.93;;;4.82;;
71869;SDS011;59739;47.696;11.746;2023-05-14T12:52:07;7.50;;;5.10;;
71869;SDS011;59739;47.696;11.746;2023-05-14T12:54:33;8.02;;;5.03;;
71869;SDS011;59739;47.696;11.746;2023-05-14T12:56:59;8.27;;;5.80;;
71869;SDS011;59739;47.696;11.746;2023-05-14T12:59:25;6.50;;;4.95;;
71869;SDS011;59739;47.696;11.746;2023-05-14T13:01:51;6.15;;;4.55;;
71869;SDS011;59739;47.696;11.746;2023-05-14T13:04:17;6.00;;;4.22;;
71869;SDS011;59739;47.696;11.746;2023-05-14T13:06:43;7.00;;;5.13;;
71869;SDS011;59739;47.696;11.746;2023-05-14T13:09:09;6.47;;;4.55;;
71869;SDS011;59739;47.696;11.746;2023-05-14T13:11:35;6.93;;;4.35;;
71869;SDS011;59739;47.696;11.746;2023-05-14T13:14:01;7.68;;;4.53;;
71869;SDS011;59739;47.696;11.746;2023-05-14T13:16:28;5.60;;;4.18;;
71869;SDS011;59739;47.696;11.746;2023-05-14T13:18:55;5.03;;;3.83;;
71869;SDS011;59739;47.696;11.746;2023-05-14T13:21:21;6.63;;;5.10;;
71869;SDS011;59739;47.696;11.746;2023-05-14T13:23:47;6.88;;;4.90;;
71869;SDS011;59739;47.696;11.746;2023-05-14T13:26:13;6.32;;;4.72;;
71869;SDS011;59739;47.696;11.746;2023-05-14T13:28:40;7.28;;;5.07;;
71869;SDS011;59739;47.696;11.746;2023-05-14T13:31:07;6.75;;;5.15;;
71869;SDS011;59739;47.696;11.746;2023-05-14T13:33:41;6.70;;;5.43;;
71869;SDS011;59739;47.696;11.746;2023-05-14T13:36:09;6.82;;;4.90;;
71869;SDS011;59739;47.696;11.746;2023-05-14T13:38:37;6.68;;;5.25;;
71869;SDS011;59739;47.696;11.746;2023-05-14T13:41:03;6.55;;;4.85;;
71869;SDS011;59739;47.696;11.746;2023-05-14T13:43:30;6.32;;;5.00;;
71869;SDS011;59739;47.696;11.746;2023-05-14T13:45:57;5.30;;;4.38;;
71869;SDS011;59739;47.696;11.746;2023-05-14T13:48:25;6.85;;;4.90;;
71869;SDS011;59739;47.696;11.746;2023-05-14T13:50:51;5.53;;;4.95;;
71869;SDS011;59739;47.696;11.746;2023-05-14T13:53:18;6.40;;;4.65;;
71869;SDS011;59739;47.696;11.746;2023-05-14T13:55:45;6.28;;;4.90;;
71869;SDS011;59739;47.696;11.746;2023-05-14T13:58:11;5.93;;;4.80;;
71869;SDS011;59739;47.696;11.746;2023-05-14T14:00:38;6.13;;;4.40;;
71869;SDS011;59739;47.696;11.746;2023-05-14T14:03:05;5.50;;;4.25;;
71869;SDS011;59739;47.696;11.746;2023-05-14T14:05:32;5.93;;;4.38;;
71869;SDS011;59739;47.696;11.746;2023-05-14T14:07:59;5.95;;;4.50;;
71869;SDS011;59739;47.696;11.746;2023-05-14T14:10:25;6.47;;;4.50;;
71869;SDS011;59739;47.696;11.746;2023-05-14T14:12:51;5.95;;;4.63;;
71869;SDS011;59739;47.696;11.746;2023-05-14T14:15:17;5.65;;;4.68;;
71869;SDS011;59739;47.696;11.746;2023-05-14T14:17:44;7.18;;;5.38;;
71869;SDS011;59739;47.696;11.746;2023-05-14T14:20:10;8.07;;;5.28;;
71869;SDS011;59739;47.696;11.746;2023-05-14T14:22:37;5.97;;;5.10;;
71869;SDS011;59739;47.696;11.746;2023-05-14T14:25:04;6.25;;;4.80;;
71869;SDS011;59739;47.696;11.746;2023-05-14T14:27:32;6.32;;;4.60;;
71869;SDS011;59739;47.696;11.746;2023-05-14T14:30:03;6.57;;;5.00;;
71869;SDS011;59739;47.696;11.746;2023-05-14T14:32:39;6.20;;;4.72;;
71869;SDS011;59739;47.696;11.746;2023-05-14T14:35:09;5.78;;;4.50;;
71869;SDS011;59739;47.696;11.746;2023-05-14T14:37:36;5.82;;;4.75;;
71869;SDS011;59739;47.696;11.746;2023-05-14T14:40:02;7.43;;;4.95;;
71869;SDS011;59739;47.696;11.746;2023-05-14T14:42:31;6.10;;;4.78;;
71869;SDS011;59739;47.696;11.746;2023-05-14T14:44:59;5.63;;;3.92;;
71869;SDS011;59739;47.696;11.746;2023-05-14T14:47:25;5.32;;;4.47;;
71869;SDS011;59739;47.696;11.746;2023-05-14T14:49:51;5.15;;;4.30;;